South Hedland, Australia

6:00 AM AWST on April 28, 2017 (GMT +0800)
Port Hedland International | | Change Station

Elev 26 ft 20.37 °S, 118.63 °E | Updated 30 minutes ago

Clear
Clear
72 °F
Feels Like 72 °F
N
9
Wind Variable Wind from SE

Today
High -- | Low -- °F
--% Chance of Precip.
Yesterday
High -- | Low -- °F
Precip. -- in
Pressure 29.98 in
Visibility 6.2 miles
Clouds
Dew Point 50 °F
Humidity 46%
Rainfall 0.00 in
Snow Depth Not available.
6:20 AM 5:44 PM
Waxing Crescent, 3% visible
METAR YPPD 272130Z AUTO 13008KT 9999 // NCD 22/10 Q1015
Pressure 29.98 in
Visibility 6.2 miles
Clouds
Dew Point 50 °F
Humidity 46%
Rainfall 0.00 in
Snow Depth Not available.
6:20 AM 5:44 PM
Waxing Crescent, 3% visible
METAR YPPD 272130Z AUTO 13008KT 9999 // NCD 22/10 Q1015

Get Severe Weather Alerts

Thanks for signing up!

Be on the lookout for a verification email in your inbox.

You'll start receiving the daily forecast at 8 AM.

×

10-Day Weather Forecast

×

Almanac

Astronomy

Apr. 28, 2017 Rise Set
Actual Time
Civil Twilight
Nautical Twilight
Astronomical Twilight
Moon
Length of Visible Light
Length of Day
Tomorrow will be .
, % of the Moon is Illuminated

Today's Extremes

Country Highs Country Lows

Community

WunderPhotos

WunderBlog® & News

Nearby

Air Quality

  Air Quality AQ Index Pollutant
Not available.

Snow Depth

Station Depth Elevation

Earthquake Activity

City Distance Mag. Time & Date
Minimum magnitude displayed is 2.5.

Coastal Water Temperatures

Place Temperature

Stations

Nearby Weather Stations

Station Location Temp. Windchill Dew Point Humidity Wind Precip. Elev Updated Type